createdAt,value
2022-10-19T00:01:53.192Z,33.40
2022-10-19T00:04:23.315Z,29.80
2022-10-19T00:09:23.019Z,31.30
2022-10-19T00:11:53.124Z,32.10
2022-10-19T00:14:25.941Z,26.90
2022-10-19T00:16:58.844Z,33.00
2022-10-19T00:19:29.474Z,39.20
2022-10-19T00:24:29.530Z,26.90
2022-10-19T00:26:59.557Z,35.20
2022-10-19T00:29:28.937Z,35.60
2022-10-19T00:31:58.075Z,21.10
2022-10-19T00:36:59.894Z,30.60
2022-10-19T00:39:28.948Z,23.50
2022-10-19T00:41:59.207Z,36.60
2022-10-19T00:47:06.902Z,26.50
2022-10-19T00:49:46.343Z,25.40
2022-10-19T00:52:21.507Z,31.10
2022-10-19T00:54:52.974Z,33.40
2022-10-19T00:57:24.063Z,55.00
2022-10-19T00:59:56.097Z,129.60
2022-10-19T01:02:27.451Z,183.10
2022-10-19T01:04:57.541Z,61.50
2022-10-19T01:07:28.845Z,58.80
2022-10-19T01:10:01.222Z,36.70
2022-10-19T01:12:50.234Z,42.40
2022-10-19T01:15:39.691Z,44.60
2022-10-19T01:18:40.965Z,52.40
2022-10-19T01:21:23.568Z,35.50
2022-10-19T01:24:39.822Z,33.60
2022-10-19T01:27:17.205Z,35.10
2022-10-19T01:30:06.954Z,32.80
2022-10-19T01:32:56.696Z,22.70
2022-10-19T01:36:01.001Z,32.30
2022-10-19T01:38:42.593Z,31.60
2022-10-19T01:41:30.086Z,22.70
2022-10-19T01:44:03.846Z,36.30
2022-10-19T01:46:47.378Z,23.80
2022-10-19T01:49:48.944Z,23.80
2022-10-19T01:52:22.684Z,29.30
2022-10-19T01:54:57.429Z,33.70
2022-10-19T01:57:37.927Z,26.00
2022-10-19T02:00:11.342Z,39.80
2022-10-19T02:02:51.668Z,35.30
2022-10-19T02:05:27.371Z,20.40
2022-10-19T02:08:01.709Z,29.30
2022-10-19T02:10:34.813Z,22.50
2022-10-19T02:13:06.686Z,28.70
2022-10-19T02:15:40.380Z,28.90
2022-10-19T02:18:13.906Z,26.50
2022-10-19T02:20:43.850Z,24.00
2022-10-19T02:23:15.618Z,17.50
2022-10-19T02:25:44.724Z,19.00
2022-10-19T02:28:16.153Z,27.30
2022-10-19T02:30:45.852Z,21.10
2022-10-19T02:33:14.892Z,24.20
2022-10-19T02:35:45.574Z,29.70
2022-10-19T02:38:19.400Z,22.90
2022-10-19T02:41:13.142Z,25.20
2022-10-19T02:43:46.669Z,21.00
2022-10-19T02:46:28.666Z,19.60
2022-10-19T02:49:00.251Z,23.90
2022-10-19T02:51:33.372Z,22.40
2022-10-19T02:54:05.192Z,26.90
2022-10-19T02:56:35.731Z,25.50
2022-10-19T02:59:05.583Z,21.50
2022-10-19T03:01:34.847Z,25.90
2022-10-19T03:04:05.678Z,22.70
2022-10-19T03:06:35.209Z,23.20
2022-10-19T03:09:04.776Z,11.40
2022-10-19T03:14:03.290Z,15.60
2022-10-19T03:16:32.603Z,22.60
2022-10-19T03:19:01.568Z,17.80
2022-10-19T03:21:30.873Z,20.60
2022-10-19T03:24:01.698Z,20.60
2022-10-19T03:26:31.576Z,23.30
2022-10-19T03:29:01.362Z,20.50
2022-10-19T03:31:30.506Z,20.00
2022-10-19T03:34:01.245Z,20.00
2022-10-19T03:39:03.987Z,23.20
2022-10-19T03:41:36.071Z,19.90
2022-10-19T03:44:07.908Z,23.80
2022-10-19T03:46:38.301Z,18.60
2022-10-19T03:49:07.769Z,26.30
2022-10-19T03:51:36.612Z,20.30
2022-10-19T03:54:07.857Z,19.30
2022-10-19T03:56:37.115Z,20.40
2022-10-19T03:59:08.120Z,21.50
2022-10-19T04:01:40.263Z,24.60
2022-10-19T04:04:16.267Z,28.60
2022-10-19T04:06:47.484Z,36.10
2022-10-19T04:09:19.382Z,27.60
2022-10-19T04:11:49.434Z,46.10
2022-10-19T04:14:31.811Z,25.00
2022-10-19T04:17:03.197Z,54.20
2022-10-19T04:19:32.446Z,50.30
2022-10-19T04:22:01.256Z,38.20
2022-10-19T04:24:30.144Z,36.00
2022-10-19T04:26:59.088Z,25.30
2022-10-19T04:29:29.818Z,23.60
2022-10-19T04:32:00.008Z,22.20
2022-10-19T04:34:28.587Z,33.00
2022-10-19T04:36:59.722Z,25.80
2022-10-19T04:39:28.403Z,29.80
2022-10-19T04:41:57.344Z,29.50
2022-10-19T04:44:26.639Z,29.80
2022-10-19T04:46:55.715Z,39.80
2022-10-19T04:49:25.259Z,38.20
2022-10-19T04:51:54.760Z,24.90
2022-10-19T04:54:23.572Z,52.60
2022-10-19T04:56:54.083Z,32.90
2022-10-19T04:59:22.725Z,60.30
2022-10-19T05:01:52.935Z,50.20
2022-10-19T05:04:21.726Z,38.60
2022-10-19T05:06:50.873Z,34.80
2022-10-19T05:09:19.560Z,29.90
2022-10-19T05:11:51.006Z,31.60
2022-10-19T05:14:20.395Z,33.20
2022-10-19T05:16:49.470Z,34.80
2022-10-19T05:19:18.658Z,31.30
2022-10-19T05:21:47.239Z,34.30
2022-10-19T05:24:16.640Z,34.90
2022-10-19T05:26:45.838Z,32.50
2022-10-19T05:29:14.489Z,31.20
2022-10-19T05:31:43.485Z,36.20
2022-10-19T05:34:12.065Z,37.10
2022-10-19T05:36:41.150Z,40.00
2022-10-19T05:39:14.296Z,28.30
2022-10-19T05:41:47.389Z,37.10
2022-10-19T05:44:21.952Z,32.10
2022-10-19T05:46:52.050Z,48.80
2022-10-19T05:49:22.756Z,44.10
2022-10-19T05:51:51.598Z,34.40
2022-10-19T05:54:22.690Z,42.80
2022-10-19T05:56:53.727Z,48.00
2022-10-19T05:59:22.400Z,85.40
2022-10-19T06:01:50.901Z,48.20
2022-10-19T06:04:19.649Z,65.20
2022-10-19T06:06:48.434Z,35.10
2022-10-19T06:09:17.034Z,47.40
2022-10-19T06:11:45.672Z,33.20
2022-10-19T06:14:16.418Z,37.80
2022-10-19T06:16:46.396Z,36.20
2022-10-19T06:19:15.369Z,31.70
2022-10-19T06:21:47.298Z,27.80
2022-10-19T06:24:19.723Z,25.30
2022-10-19T06:26:51.109Z,27.10
2022-10-19T06:29:19.832Z,23.80
2022-10-19T06:31:48.725Z,19.90
2022-10-19T06:34:17.595Z,23.00
2022-10-19T06:36:46.509Z,26.00
2022-10-19T06:39:15.297Z,20.90
2022-10-19T06:41:44.194Z,21.90
2022-10-19T06:44:30.961Z,18.60
2022-10-19T06:46:59.982Z,18.90
2022-10-19T06:49:29.307Z,17.00
2022-10-19T06:51:58.182Z,15.00
2022-10-19T06:54:26.830Z,16.70
2022-10-19T06:56:55.448Z,14.80
2022-10-19T06:59:23.933Z,22.40
2022-10-19T07:01:53.116Z,25.20
2022-10-19T07:04:21.628Z,22.80
2022-10-19T07:06:51.520Z,25.70
2022-10-19T07:09:20.506Z,21.40
2022-10-19T07:11:49.647Z,20.70
2022-10-19T07:14:18.509Z,21.40
2022-10-19T07:16:47.080Z,22.50
2022-10-19T07:19:15.766Z,18.60
2022-10-19T07:21:45.368Z,18.90
2022-10-19T07:24:14.570Z,21.70
2022-10-19T07:26:43.261Z,22.10
2022-10-19T07:29:12.241Z,18.60
2022-10-19T07:31:41.640Z,21.60
2022-10-19T07:34:14.808Z,18.00
2022-10-19T07:36:48.332Z,23.10
2022-10-19T07:39:17.938Z,18.40
2022-10-19T07:41:47.137Z,18.80
2022-10-19T07:44:16.134Z,18.20
2022-10-19T07:46:44.922Z,20.50
2022-10-19T07:49:17.045Z,20.90
2022-10-19T07:51:47.156Z,19.80
2022-10-19T07:54:15.791Z,21.00
2022-10-19T07:56:44.693Z,21.20
2022-10-19T07:59:15.367Z,22.30
2022-10-19T08:01:45.386Z,20.10
2022-10-19T08:04:49.010Z,24.10
2022-10-19T08:07:05.554Z,26.40
2022-10-19T08:09:52.090Z,21.90
2022-10-19T08:12:28.812Z,26.90
2022-10-19T08:14:57.498Z,27.70
2022-10-19T08:17:26.296Z,29.80
2022-10-19T08:19:55.284Z,28.00
2022-10-19T08:22:23.975Z,27.30
2022-10-19T08:24:52.546Z,29.00
2022-10-19T08:27:20.922Z,30.40
2022-10-19T08:29:52.175Z,31.20
2022-10-19T08:32:21.277Z,31.40
2022-10-19T08:34:49.955Z,27.70
2022-10-19T08:37:26.369Z,27.10
2022-10-19T08:40:18.952Z,26.60
2022-10-19T08:43:06.699Z,22.50
2022-10-19T08:46:01.902Z,24.70
2022-10-19T08:48:37.561Z,27.50
2022-10-19T08:51:09.480Z,24.40
2022-10-19T08:53:51.649Z,27.90
2022-10-19T08:56:52.114Z,23.80
2022-10-19T08:59:45.209Z,26.60
2022-10-19T09:02:39.806Z,24.00
2022-10-19T09:05:24.360Z,24.50
2022-10-19T09:07:55.095Z,24.40
2022-10-19T09:10:36.011Z,19.90
2022-10-19T09:13:41.754Z,19.50
2022-10-19T09:16:28.421Z,19.70
2022-10-19T09:18:57.111Z,22.60
2022-10-19T09:21:47.047Z,22.60
2022-10-19T09:24:30.102Z,24.10
2022-10-19T09:27:01.159Z,22.20
2022-10-19T09:29:45.004Z,23.20
2022-10-19T09:32:19.019Z,24.70
2022-10-19T09:34:57.289Z,25.00
2022-10-19T09:37:26.985Z,29.70
2022-10-19T09:39:56.736Z,31.60
2022-10-19T09:45:20.425Z,29.50
2022-10-19T09:47:51.058Z,29.60
2022-10-19T09:50:22.795Z,27.20
2022-10-19T09:53:05.621Z,28.10
2022-10-19T09:55:39.316Z,24.10
2022-10-19T09:58:16.105Z,25.30
2022-10-19T10:00:47.926Z,25.70
2022-10-19T10:03:39.792Z,27.60
2022-10-19T10:06:18.316Z,25.10
2022-10-19T10:08:50.139Z,25.10
2022-10-19T10:11:29.408Z,25.30
2022-10-19T10:14:05.025Z,25.90
2022-10-19T10:16:38.352Z,23.80
2022-10-19T10:19:12.265Z,27.70
2022-10-19T10:21:55.952Z,21.10
2022-10-19T10:24:27.718Z,23.20
2022-10-19T10:27:02.225Z,19.00
2022-10-19T10:29:35.975Z,24.70
2022-10-19T10:32:19.386Z,24.50
2022-10-19T10:35:17.075Z,19.60
2022-10-19T10:37:47.530Z,20.80
2022-10-19T10:40:27.909Z,15.90
2022-10-19T10:43:07.499Z,13.90
2022-10-19T10:45:44.376Z,18.60
2022-10-19T10:48:39.658Z,15.70
2022-10-19T10:51:41.656Z,17.90
2022-10-19T10:54:30.717Z,16.60
2022-10-19T10:57:19.304Z,20.30
2022-10-19T11:00:12.533Z,15.60
2022-10-19T11:03:08.258Z,19.80
2022-10-19T11:05:42.838Z,21.50
2022-10-19T11:08:36.508Z,21.00
2022-10-19T11:11:11.376Z,17.50
2022-10-19T11:13:45.490Z,20.90
2022-10-19T11:16:19.886Z,17.30
2022-10-19T11:18:54.117Z,17.50
2022-10-19T11:21:34.688Z,16.80
2022-10-19T11:24:35.627Z,16.80
2022-10-19T11:27:18.861Z,20.00
2022-10-19T11:29:56.246Z,22.20
2022-10-19T11:33:03.536Z,15.70
2022-10-19T11:35:40.620Z,17.90
2022-10-19T11:38:33.674Z,20.40
2022-10-19T11:41:34.726Z,15.70
2022-10-19T11:44:30.745Z,15.40
2022-10-19T11:47:29.663Z,18.90
2022-10-19T11:50:04.396Z,17.40
2022-10-19T11:53:12.780Z,20.60
2022-10-19T11:55:47.092Z,18.20
2022-10-19T11:58:32.334Z,17.40
2022-10-19T12:01:17.395Z,17.60
2022-10-19T12:04:11.525Z,17.80
2022-10-19T12:06:50.455Z,19.30
2022-10-19T12:09:50.269Z,13.50
2022-10-19T12:12:31.234Z,13.40
2022-10-19T12:15:21.021Z,15.00
2022-10-19T12:17:53.113Z,12.60
2022-10-19T12:20:43.688Z,12.60
2022-10-19T12:23:28.861Z,11.80
2022-10-19T12:26:00.541Z,14.60
2022-10-19T12:28:32.792Z,12.00
2022-10-19T12:31:03.312Z,11.30
2022-10-19T12:33:38.318Z,10.30
2022-10-19T12:36:34.622Z,11.00
2022-10-19T12:39:18.309Z,12.10
2022-10-19T12:41:52.835Z,14.10
2022-10-19T12:44:27.356Z,11.30
2022-10-19T12:47:20.513Z,11.00
2022-10-19T12:49:51.142Z,13.00
2022-10-19T12:52:41.715Z,10.70
2022-10-19T12:55:27.023Z,13.00
2022-10-19T12:58:06.745Z,14.10
2022-10-19T13:00:38.114Z,11.80
2022-10-19T13:03:08.957Z,10.40
2022-10-19T13:05:37.712Z,11.40
2022-10-19T13:08:10.697Z,12.20
2022-10-19T13:11:02.249Z,10.80
2022-10-19T13:13:58.173Z,9.90
2022-10-19T13:16:39.555Z,12.20
2022-10-19T13:19:14.080Z,9.70
2022-10-19T13:22:02.425Z,9.70
2022-10-19T13:24:34.862Z,10.50
2022-10-19T13:27:03.487Z,12.00
2022-10-19T13:29:40.867Z,14.00
2022-10-19T13:32:38.103Z,13.60
2022-10-19T13:35:36.816Z,14.20
2022-10-19T13:38:17.680Z,12.30
2022-10-19T13:40:49.072Z,11.70
2022-10-19T13:43:38.915Z,10.80
2022-10-19T13:46:30.333Z,11.60
2022-10-19T13:49:01.886Z,12.40
2022-10-19T13:51:52.178Z,9.50
2022-10-19T13:57:26.416Z,9.30
2022-10-19T14:00:21.853Z,13.90
2022-10-19T14:02:53.486Z,9.10
2022-10-19T14:05:31.324Z,10.80
2022-10-19T14:08:17.826Z,13.00
2022-10-19T14:11:01.020Z,11.30
2022-10-19T14:13:30.821Z,14.10
2022-10-19T14:16:03.203Z,9.00
2022-10-19T14:18:34.790Z,16.80
2022-10-19T14:21:06.559Z,14.10
2022-10-19T14:23:38.320Z,17.70
2022-10-19T14:26:15.144Z,16.70
2022-10-19T14:28:44.146Z,13.70
2022-10-19T14:31:20.800Z,10.90
2022-10-19T14:34:01.467Z,13.50
2022-10-19T14:36:44.489Z,11.50
2022-10-19T14:39:30.787Z,9.50
2022-10-19T14:42:07.152Z,8.90
2022-10-19T14:44:40.650Z,11.40
2022-10-19T14:47:27.464Z,11.10
2022-10-19T14:49:56.148Z,12.20
2022-10-19T14:52:34.055Z,11.20
2022-10-19T14:55:12.758Z,12.60
2022-10-19T14:57:47.913Z,11.20
2022-10-19T15:00:22.471Z,10.70
2022-10-19T15:03:02.068Z,12.70
2022-10-19T15:05:35.160Z,13.50
2022-10-19T15:08:19.222Z,13.70
2022-10-19T15:10:49.429Z,11.90
2022-10-19T15:13:29.481Z,14.30
2022-10-19T15:15:58.164Z,12.50
2022-10-19T15:18:48.947Z,12.50
2022-10-19T15:21:21.872Z,12.10
2022-10-19T15:23:52.660Z,13.90
2022-10-19T15:26:27.004Z,12.60
2022-10-19T15:29:08.394Z,16.00
2022-10-19T15:31:36.969Z,13.40
2022-10-19T15:34:05.669Z,11.90
2022-10-19T15:36:35.370Z,12.90
2022-10-19T15:39:18.438Z,13.60
2022-10-19T15:41:54.547Z,14.50
2022-10-19T15:44:49.649Z,13.70
2022-10-19T15:47:21.987Z,12.70
2022-10-19T15:50:01.756Z,13.50
2022-10-19T15:52:34.347Z,12.80
2022-10-19T15:55:03.644Z,14.70
2022-10-19T15:57:36.898Z,11.30
2022-10-19T16:00:17.136Z,14.20
2022-10-19T16:05:13.953Z,14.60
2022-10-19T16:07:42.642Z,20.60
2022-10-19T16:10:21.055Z,28.50
2022-10-19T16:12:49.960Z,23.30
2022-10-19T16:15:24.466Z,18.10
2022-10-19T16:17:59.259Z,19.00
2022-10-19T16:20:30.033Z,17.60
2022-10-19T16:22:59.019Z,18.50
2022-10-19T16:25:27.507Z,16.90
2022-10-19T16:27:56.087Z,17.60
2022-10-19T16:30:24.768Z,16.50
2022-10-19T16:32:53.258Z,13.90
2022-10-19T16:35:21.765Z,15.80
2022-10-19T16:37:50.210Z,16.40
2022-10-19T16:40:18.897Z,15.00
2022-10-19T16:42:47.581Z,16.50
2022-10-19T16:45:16.267Z,14.50
2022-10-19T16:47:45.673Z,14.20
2022-10-19T16:50:14.048Z,104.90
2022-10-19T16:52:42.426Z,26.10
2022-10-19T16:55:11.545Z,38.10
2022-10-19T16:57:40.310Z,39.30
2022-10-19T17:00:10.330Z,37.20
2022-10-19T17:02:41.844Z,20.10
2022-10-19T17:05:12.918Z,19.60
2022-10-19T17:07:41.402Z,18.20
2022-10-19T17:10:10.378Z,17.70
2022-10-19T17:12:43.235Z,17.20
2022-10-19T17:15:41.065Z,19.00
2022-10-19T17:18:00.103Z,26.70
2022-10-19T17:20:28.479Z,22.60
2022-10-19T17:22:56.961Z,22.60
2022-10-19T17:25:25.752Z,30.60
2022-10-19T17:27:54.228Z,26.50
2022-10-19T17:30:22.815Z,24.80
2022-10-19T17:32:51.196Z,24.60
2022-10-19T17:35:19.504Z,22.60
2022-10-19T17:37:47.954Z,23.20
2022-10-19T17:40:16.946Z,21.50
2022-10-19T17:42:45.430Z,22.90
2022-10-19T17:45:13.917Z,20.10
2022-10-19T17:47:42.281Z,21.40
2022-10-19T17:50:10.863Z,20.80
2022-10-19T17:52:39.266Z,23.60
2022-10-19T17:55:13.357Z,22.00
2022-10-19T17:57:42.244Z,20.00
2022-10-19T18:00:11.759Z,21.90
2022-10-19T18:02:47.185Z,22.60
2022-10-19T18:05:15.830Z,24.50
2022-10-19T18:07:44.671Z,19.40
2022-10-19T18:10:14.890Z,24.40
2022-10-19T18:15:11.646Z,21.40
2022-10-19T18:17:40.227Z,19.70
2022-10-19T18:20:09.732Z,16.70
2022-10-19T18:22:38.225Z,16.90
2022-10-19T18:25:09.457Z,17.70
2022-10-19T18:27:38.183Z,16.80
2022-10-19T18:30:07.141Z,25.90
2022-10-19T18:32:36.549Z,21.70
2022-10-19T18:35:05.646Z,25.60
2022-10-19T18:37:34.016Z,24.60
2022-10-19T18:40:02.496Z,18.50
2022-10-19T18:42:31.312Z,19.90
2022-10-19T18:44:59.774Z,15.80
2022-10-19T18:47:30.226Z,19.00
2022-10-19T18:49:58.788Z,16.30
2022-10-19T18:52:27.256Z,16.50
2022-10-19T18:54:55.633Z,18.60
2022-10-19T18:57:27.181Z,20.00
2022-10-19T18:59:58.737Z,18.60
2022-10-19T19:02:34.910Z,19.20
2022-10-19T19:05:11.802Z,17.50
2022-10-19T19:07:40.330Z,15.60
2022-10-19T19:10:09.146Z,14.60
2022-10-19T19:12:37.800Z,13.20
2022-10-19T19:15:08.817Z,15.40
2022-10-19T19:17:38.589Z,19.00
2022-10-19T19:20:07.984Z,17.20
2022-10-19T19:22:37.230Z,17.80
2022-10-19T19:25:06.813Z,18.30
2022-10-19T19:27:35.296Z,12.80
2022-10-19T19:30:04.983Z,15.70
2022-10-19T19:32:35.047Z,16.30
2022-10-19T19:35:04.281Z,16.00
2022-10-19T19:37:33.041Z,13.80
2022-10-19T19:40:01.868Z,17.60
2022-10-19T19:42:30.456Z,13.50
2022-10-19T19:44:59.044Z,14.70
2022-10-19T19:47:27.522Z,14.30
2022-10-19T19:49:56.006Z,18.10
2022-10-19T19:52:24.584Z,15.10
2022-10-19T19:54:54.449Z,15.50
2022-10-19T19:57:23.292Z,13.40
2022-10-19T19:59:51.775Z,14.20
2022-10-19T20:02:21.475Z,13.30
2022-10-19T20:04:49.962Z,13.70
2022-10-19T20:07:18.542Z,14.40
2022-10-19T20:09:47.332Z,12.40
2022-10-19T20:12:15.795Z,16.20
2022-10-19T20:14:44.289Z,12.30
2022-10-19T20:17:12.571Z,13.20
2022-10-19T20:19:41.826Z,14.10
2022-10-19T20:22:10.295Z,12.30
2022-10-19T20:24:39.034Z,15.40
2022-10-19T20:27:07.642Z,16.80
2022-10-19T20:29:36.404Z,14.70
2022-10-19T20:32:05.187Z,16.90
2022-10-19T20:34:36.319Z,12.70
2022-10-19T20:37:05.026Z,12.20
2022-10-19T20:39:33.671Z,13.70
2022-10-19T20:42:02.162Z,14.10
2022-10-19T20:44:31.077Z,15.40
2022-10-19T20:46:59.559Z,12.30
2022-10-19T20:49:28.550Z,15.30
2022-10-19T20:51:57.442Z,11.60
2022-10-19T20:54:25.973Z,14.30
2022-10-19T20:56:54.940Z,11.50
2022-10-19T20:59:31.787Z,13.60
2022-10-19T21:02:00.460Z,12.60
2022-10-19T21:04:29.477Z,15.00
2022-10-19T21:07:15.676Z,11.70
2022-10-19T21:09:44.257Z,15.50
2022-10-19T21:12:12.943Z,9.90
2022-10-19T21:14:41.530Z,12.80
2022-10-19T21:17:10.303Z,10.50
2022-10-19T21:19:38.787Z,11.50
2022-10-19T21:22:08.791Z,10.10
2022-10-19T21:27:09.384Z,12.00
2022-10-19T21:29:38.550Z,10.00
2022-10-19T21:32:07.647Z,10.00
2022-10-19T21:34:36.431Z,9.50
2022-10-19T21:37:05.120Z,9.80
2022-10-19T21:39:33.985Z,11.20
2022-10-19T21:42:02.904Z,9.20
2022-10-19T21:44:31.478Z,9.30
2022-10-19T21:47:00.371Z,9.30
2022-10-19T21:49:28.970Z,9.00
2022-10-19T21:51:57.906Z,9.70
2022-10-19T21:54:26.635Z,8.20
2022-10-19T21:57:00.693Z,9.00
2022-10-19T21:59:29.570Z,6.90
2022-10-19T22:02:00.391Z,8.80
2022-10-19T22:04:29.591Z,7.40
2022-10-19T22:07:00.228Z,10.90
2022-10-19T22:09:29.086Z,9.20
2022-10-19T22:11:57.679Z,8.70
2022-10-19T22:14:27.819Z,8.30
2022-10-19T22:19:26.937Z,8.30
2022-10-19T22:21:57.656Z,9.40
2022-10-19T22:26:55.837Z,8.20
2022-10-19T22:29:25.647Z,8.90
2022-10-19T22:31:55.865Z,7.90
2022-10-19T22:34:25.680Z,8.80
2022-10-19T22:36:55.099Z,7.70
2022-10-19T22:39:27.751Z,8.60
2022-10-19T22:41:58.420Z,9.30
2022-10-19T22:44:27.294Z,9.80
2022-10-19T22:46:57.603Z,8.20
2022-10-19T22:49:27.005Z,9.70
2022-10-19T22:51:56.546Z,9.80
2022-10-19T22:54:26.133Z,8.10
2022-10-19T22:56:55.834Z,9.20
2022-10-19T22:59:25.536Z,8.90
2022-10-19T23:01:54.796Z,8.50
2022-10-19T23:04:25.805Z,8.60
2022-10-19T23:06:56.450Z,7.00
2022-10-19T23:09:26.435Z,8.90
2022-10-19T23:14:25.865Z,10.90
2022-10-19T23:16:56.290Z,7.00
2022-10-19T23:19:26.745Z,7.40
2022-10-19T23:21:56.061Z,7.10
2022-10-19T23:24:25.404Z,7.20
2022-10-19T23:26:55.509Z,6.70
2022-10-19T23:29:25.936Z,6.10
2022-10-19T23:31:55.980Z,5.40
2022-10-19T23:34:26.530Z,5.60
2022-10-19T23:36:56.888Z,5.50
2022-10-19T23:41:56.053Z,7.60
2022-10-19T23:46:55.442Z,6.30
2022-10-19T23:49:25.118Z,6.30
2022-10-19T23:51:55.177Z,5.60
2022-10-19T23:54:26.030Z,5.60
2022-10-19T23:56:55.810Z,5.90
2022-10-19T23:59:25.127Z,6.80
